METAR Formatted Surface Weather Observation
Issued by NWS

Home | Current Version | Previous Version | Text Only | Print | Product List | Glossary On
Versions: 1 2 3 4 5 6 7 8 9 10 11 12 13 14 15 16 17 18 19 20 21 22 23
827
SAUS44 KBMX 301854
MTRHEY
METAR KHEY 301853Z AUTO 26003KT 10SM CLR 25/10 A3003 RMK AO2 SLP057
T02500100



USA.gov is the U.S. government's official web portal to all federal, state and local government web resources and services.